Time;durP1;ratioP1;P1;durP2;ratioP2;P2;SDS_P1;SDS_P2;PMS_P1;PMS_P2;Temp;Humidity;BMP_temperature;BMP_pressure;BME280_temperature;BME280_humidity;BME280_pressure;Samples;Min_cycle;Max_cycle;Signal;HPM_P1;HPM_P2
2024/02/12 00:04:49;;;;;;;1999.90;999.90;;;;;;;7.88;100.00;99609.81;10220171;29;20058;-66
2024/02/12 00:09:52;;;;;;;1999.90;999.90;;;;;;;7.61;100.00;99621.09;10219239;29;20087;-66
2024/02/12 00:14:54;;;;;;;1999.90;999.90;;;;;;;7.72;100.00;99613.44;10219603;29;20059;-65
2024/02/12 00:19:56;;;;;;;1999.90;999.90;;;;;;;7.64;100.00;99641.75;10219391;29;20054;-65
2024/02/12 00:25:00;;;;;;;1999.90;999.90;;;;;;;7.67;100.00;99643.31;10218335;29;20099;-65
2024/02/12 00:30:02;;;;;;;1999.90;999.90;;;;;;;7.78;100.00;99653.88;10218524;29;20513;-65
2024/02/12 00:35:05;;;;;;;1999.90;999.90;;;;;;;8.04;100.00;99649.59;10219038;29;20130;-66
2024/02/12 00:40:09;;;;;;;1999.90;999.90;;;;;;;7.97;100.00;99658.75;10218780;29;20047;-65
2024/02/12 00:45:12;;;;;;;1999.90;999.90;;;;;;;7.92;100.00;99682.50;10219049;29;20056;-65
2024/02/12 00:50:15;;;;;;;1999.90;999.90;;;;;;;7.80;100.00;99684.13;10217237;29;20043;-66
2024/02/12 00:55:18;;;;;;;1999.90;999.90;;;;;;;7.78;100.00;99690.34;10216421;29;20420;-66
2024/02/12 01:00:21;;;;;;;1999.90;999.90;;;;;;;7.85;100.00;99701.22;10217890;29;20051;-66
2024/02/12 01:05:23;;;;;;;1999.90;999.90;;;;;;;7.65;100.00;99713.75;10217142;29;20457;-66
2024/02/12 01:10:26;;;;;;;1999.90;999.90;;;;;;;7.88;100.00;99724.50;10215414;29;20431;-68
2024/02/12 01:15:29;;;;;;;1999.90;999.90;;;;;;;7.67;100.00;99724.91;10216343;29;20519;-68
2024/02/12 01:20:31;;;;;;;1999.90;999.90;;;;;;;7.79;100.00;99731.13;10217163;29;20130;-68
2024/02/12 01:25:34;;;;;;;1999.90;999.90;;;;;;;7.66;100.00;99738.88;10224149;23;20051;-70
2024/02/12 01:30:37;;;;;;;1999.90;999.90;;;;;;;7.77;100.00;99728.63;10216259;29;20491;-70
2024/02/12 01:35:39;;;;;;;1999.90;999.90;;;;;;;7.69;100.00;99743.88;10216041;29;20052;-70
2024/02/12 01:40:42;;;;;;;1999.90;999.90;;;;;;;7.75;100.00;99742.66;10216403;29;20047;-67
2024/02/12 01:45:44;;;;;;;1999.90;999.90;;;;;;;7.82;100.00;99746.56;10214561;29;20411;-70
2024/02/12 01:50:48;;;;;;;1999.90;999.90;;;;;;;7.78;100.00;99738.13;10216085;29;20055;-70
2024/02/12 01:55:50;;;;;;;1999.90;999.90;;;;;;;7.84;100.00;99762.13;10215359;29;20410;-70
2024/02/12 02:00:53;;;;;;;1999.90;999.90;;;;;;;7.72;100.00;99756.72;10215007;29;20047;-70
2024/02/12 02:05:56;;;;;;;1999.90;999.90;;;;;;;7.78;100.00;99758.97;10214980;29;20483;-70
2024/02/12 02:10:59;;;;;;;1999.90;999.90;;;;;;;7.81;100.00;99756.13;10214264;29;20059;-70
2024/02/12 02:16:02;;;;;;;1999.90;999.90;;;;;;;7.72;100.00;99763.72;10214730;29;20598;-70
2024/02/12 02:21:05;;;;;;;1999.90;999.90;;;;;;;7.74;100.00;99773.09;10214418;29;20052;-70
2024/02/12 02:26:07;;;;;;;1999.90;999.90;;;;;;;7.61;100.00;99780.81;10213588;29;20102;-70
2024/02/12 02:31:10;;;;;;;1999.90;999.90;;;;;;;7.81;100.00;99776.97;10213170;29;20448;-70
2024/02/12 02:36:12;;;;;;;1999.90;999.90;;;;;;;8.02;100.00;99789.63;10214837;29;20130;-70
2024/02/12 02:41:14;;;;;;;1999.90;999.90;;;;;;;7.70;100.00;99789.88;10214642;29;20130;-70
2024/02/12 02:46:26;;;;;;;1999.90;999.90;;;;;;;7.94;100.00;99787.50;10213487;29;20106;-70
2024/02/12 02:51:34;;;;;;;1999.90;999.90;;;;;;;7.75;100.00;99787.81;10212846;29;20479;-70
2024/02/12 02:56:37;;;;;;;1999.90;999.90;;;;;;;7.62;100.00;99797.31;10214469;29;20095;-70
2024/02/12 03:01:39;;;;;;;1999.90;999.90;;;;;;;7.65;100.00;99797.13;10213098;29;20048;-70
2024/02/12 03:06:41;;;;;;;1999.90;999.90;;;;;;;7.51;100.00;99799.72;10213124;29;20051;-70
2024/02/12 03:11:45;;;;;;;1999.90;999.90;;;;;;;7.49;100.00;99799.81;10213535;29;20487;-70
2024/02/12 03:16:52;;;;;;;1999.90;999.90;;;;;;;7.62;100.00;99802.53;10212380;29;20059;-69
2024/02/12 03:21:54;;;;;;;1999.90;999.90;;;;;;;7.48;100.00;99805.09;10214254;29;20044;-70
2024/02/12 03:26:58;;;;;;;1999.90;999.90;;;;;;;7.68;100.00;99816.94;10196368;29;20094;-70
2024/02/12 03:32:00;;;;;;;1999.90;999.90;;;;;;;7.43;100.00;99821.88;10214537;29;20407;-70
2024/02/12 03:37:03;;;;;;;1999.90;999.90;;;;;;;7.44;100.00;99833.94;10219424;29;20459;-70
2024/02/12 03:42:08;;;;;;;1999.90;999.90;;;;;;;7.45;100.00;99829.59;10219734;29;20054;-70
2024/02/12 03:47:10;;;;;;;1999.90;999.90;;;;;;;7.35;100.00;99820.66;10220825;29;20130;-67
2024/02/12 04:02:59;;;;;;;1999.90;999.90;;;;;;;7.04;100.00;99861.47;10219600;29;20427;-67
2024/02/12 04:08:06;;;;;;;1999.90;999.90;;;;;;;6.72;100.00;99876.31;10218807;29;20135;-67
2024/02/12 04:13:09;;;;;;;1999.90;999.90;;;;;;;6.60;100.00;99878.69;10219823;29;20055;-67
2024/02/12 04:18:12;;;;;;;1999.90;999.90;;;;;;;6.67;100.00;99885.25;10218925;29;20052;-67
2024/02/12 04:23:15;;;;;;;1999.90;999.90;;;;;;;6.80;100.00;99881.94;10219074;29;20087;-68
2024/02/12 04:28:18;;;;;;;1999.90;999.90;;;;;;;6.64;100.00;99884.53;10219232;29;20048;-67
2024/02/12 04:33:21;;;;;;;1999.90;999.90;;;;;;;6.63;100.00;99885.50;10217831;29;20086;-67
2024/02/12 04:38:24;;;;;;;1999.90;999.90;;;;;;;6.57;100.00;99885.81;10218785;29;20050;-67
2024/02/12 04:43:27;;;;;;;1999.90;999.90;;;;;;;6.69;100.00;99883.38;10217320;29;20051;-67
2024/02/12 04:48:31;;;;;;;1999.90;999.90;;;;;;;6.48;100.00;99889.75;10217817;29;20051;-68
2024/02/12 04:53:36;;;;;;;1999.90;999.90;;;;;;;6.44;100.00;99894.31;10217699;29;20052;-67
2024/02/12 04:58:38;;;;;;;1999.90;999.90;;;;;;;6.46;100.00;99899.41;10216232;29;20053;-67
2024/02/12 05:03:41;;;;;;;1999.90;999.90;;;;;;;6.39;100.00;99911.91;10216757;29;20071;-67
2024/02/12 05:08:46;;;;;;;1999.90;999.90;;;;;;;6.55;100.00;99911.91;10217126;29;20051;-68
2024/02/12 05:13:48;;;;;;;1999.90;999.90;;;;;;;6.27;100.00;99921.22;10216423;29;20057;-67
2024/02/12 05:24:11;;;;;;;1999.90;999.90;;;;;;;6.13;100.00;99932.31;10216821;29;20075;-67
2024/02/12 05:29:14;;;;;;;1999.90;999.90;;;;;;;6.27;100.00;99934.22;10216912;29;20063;-68
2024/02/12 05:34:17;;;;;;;1999.90;999.90;;;;;;;6.33;100.00;99933.88;10216115;29;20063;-67
2024/02/12 05:39:21;;;;;;;1999.90;999.90;;;;;;;6.36;100.00;99934.66;10216468;29;20068;-67
2024/02/12 05:44:23;;;;;;;1999.90;999.90;;;;;;;6.37;100.00;99933.69;10215211;29;20110;-67
2024/02/12 05:49:28;;;;;;;1999.90;999.90;;;;;;;6.24;100.00;99929.16;10216152;29;20077;-67
2024/02/12 05:54:30;;;;;;;1999.90;999.90;;;;;;;6.18;100.00;99936.44;10216006;29;20103;-68
2024/02/12 05:59:33;;;;;;;1999.90;999.90;;;;;;;6.13;100.00;99934.91;10215152;29;20130;-67
2024/02/12 06:04:36;;;;;;;1999.90;999.90;;;;;;;6.26;100.00;99942.09;10215654;29;20048;-67
2024/02/12 06:09:38;;;;;;;1999.90;999.90;;;;;;;6.32;100.00;99950.41;10214345;29;20054;-67
2024/02/12 06:14:41;;;;;;;1999.90;999.90;;;;;;;6.50;100.00;99955.53;10214194;29;20058;-67
2024/02/12 06:19:43;;;;;;;1999.90;999.90;;;;;;;6.61;100.00;99960.16;10215158;29;20051;-68
2024/02/12 06:24:45;;;;;;;1999.90;999.90;;;;;;;6.56;100.00;99955.22;10213733;29;20066;-67
2024/02/12 06:29:48;;;;;;;1999.90;999.90;;;;;;;6.58;100.00;99960.31;10214961;29;20044;-68
2024/02/12 06:34:50;;;;;;;1999.90;999.90;;;;;;;6.67;100.00;99960.69;10214855;29;20054;-68
2024/02/12 06:39:52;;;;;;;1999.90;999.90;;;;;;;6.69;100.00;99977.03;10213542;29;20047;-67
2024/02/12 06:44:55;;;;;;;1999.90;999.90;;;;;;;6.72;100.00;99983.81;10214688;29;20052;-68
2024/02/12 06:49:57;;;;;;;1999.90;999.90;;;;;;;6.74;100.00;99989.78;10213999;29;20392;-68
2024/02/12 06:55:00;;;;;;;1999.90;999.90;;;;;;;6.64;100.00;100001.59;10214460;29;20059;-68
2024/02/12 07:00:04;;;;;;;1999.90;999.90;;;;;;;6.87;100.00;100009.00;10214324;29;20052;-68
2024/02/12 07:05:07;;;;;;;1999.90;999.90;;;;;;;6.90;100.00;100010.59;10212617;29;20414;-68
2024/02/12 07:10:09;;;;;;;1999.90;999.90;;;;;;;6.94;100.00;100017.31;10220008;29;20480;-68
2024/02/12 07:15:14;;;;;;;1999.90;999.90;;;;;;;6.92;100.00;100020.94;10222181;29;20141;-68
2024/02/12 07:20:17;;;;;;;1999.90;999.90;;;;;;;7.12;100.00;100031.06;10221106;29;20487;-68
2024/02/12 07:25:20;;;;;;;1999.90;999.90;;;;;;;7.23;100.00;100035.72;10221378;29;20091;-68
2024/02/12 07:30:22;;;;;;;1999.90;999.90;;;;;;;7.15;100.00;100043.09;10220753;29;20052;-68
2024/02/12 07:35:27;;;;;;;1999.90;999.90;;;;;;;7.33;100.00;100043.81;10221230;29;20060;-68
2024/02/12 07:40:32;;;;;;;1999.90;999.90;;;;;;;7.11;100.00;100052.84;10219993;29;20051;-68
2024/02/12 07:45:36;;;;;;;1999.90;999.90;;;;;;;7.18;100.00;100063.75;10220893;29;20132;-68
2024/02/12 07:50:38;;;;;;;1999.90;999.90;;;;;;;6.98;100.00;100073.50;10221145;29;20082;-68
2024/02/12 07:55:40;;;;;;;1999.90;999.90;;;;;;;7.29;100.00;100077.00;10219875;29;20056;-68
2024/02/12 08:00:43;;;;;;;1999.90;999.90;;;;;;;7.38;100.00;100083.47;10218470;29;20380;-68
2024/02/12 08:05:49;;;;;;;1999.90;999.90;;;;;;;7.68;100.00;100087.91;10219494;29;20047;-68
2024/02/12 08:10:52;;;;;;;1999.90;999.90;;;;;;;7.35;100.00;100097.50;10219372;29;20558;-68
2024/02/12 08:15:55;;;;;;;1999.90;999.90;;;;;;;7.15;100.00;100108.19;10219746;29;20066;-68
2024/02/12 08:20:57;;;;;;;1999.90;999.90;;;;;;;7.16;100.00;100100.28;10217709;29;20083;-68
2024/02/12 08:25:59;;;;;;;1999.90;999.90;;;;;;;7.04;100.00;100112.22;10218677;29;20059;-68
2024/02/12 08:31:02;;;;;;;1999.90;999.90;;;;;;;7.18;100.00;100121.88;10219091;29;20048;-68
2024/02/12 08:36:05;;;;;;;1999.90;999.90;;;;;;;7.37;100.00;100124.31;10218341;29;20583;-68
2024/02/12 08:41:07;;;;;;;1999.90;999.90;;;;;;;7.33;100.00;100137.56;10218579;29;20059;-68
2024/02/12 08:46:12;;;;;;;1999.90;999.90;;;;;;;7.23;100.00;100140.69;10218538;29;20114;-68
2024/02/12 08:51:18;;;;;;;1999.90;999.90;;;;;;;7.48;100.00;100149.78;10218426;29;20163;-68
2024/02/12 08:56:21;;;;;;;1999.90;999.90;;;;;;;7.31;100.00;100162.84;10217700;29;20056;-68
2024/02/12 09:01:24;;;;;;;1999.90;999.90;;;;;;;7.55;100.00;100169.34;10217335;29;20055;-68
2024/02/12 09:06:26;;;;;;;1999.90;999.90;;;;;;;7.67;100.00;100169.59;10217846;29;20056;-68
2024/02/12 09:11:28;;;;;;;1999.90;999.90;;;;;;;8.64;100.00;100171.91;10217599;29;20055;-68
2024/02/12 09:16:31;;;;;;;1999.90;999.90;;;;;;;9.54;100.00;100175.16;10217434;29;20091;-68
2024/02/12 09:21:33;;;;;;;1999.90;999.90;;;;;;;10.32;100.00;100174.53;10217126;29;20043;-68
2024/02/12 09:26:37;;;;;;;1999.90;999.90;;;;;;;9.40;100.00;100187.31;10216658;29;20067;-68
2024/02/12 09:31:39;;;;;;;1999.90;999.90;;;;;;;9.14;100.00;100198.53;10215394;29;20131;-68
2024/02/12 09:36:42;;;;;;;1999.90;999.90;;;;;;;8.85;100.00;100198.53;10216045;29;20407;-68
2024/02/12 09:41:47;;;;;;;1999.90;999.90;;;;;;;8.95;100.00;100220.53;10214841;29;20056;-68
2024/02/12 09:46:52;;;;;;;1999.90;999.90;;;;;;;8.87;100.00;100226.19;10215223;29;20083;-68
2024/02/12 09:51:56;;;;;;;1999.90;999.90;;;;;;;8.59;100.00;100244.41;10216125;29;20051;-68
2024/02/12 09:57:01;;;;;;;1999.90;999.90;;;;;;;8.52;100.00;100244.78;10214355;29;20487;-68
2024/02/12 10:02:05;;;;;;;1999.90;999.90;;;;;;;8.05;100.00;100260.47;10215104;29;20406;-68
2024/02/12 10:07:08;;;;;;;1999.90;999.90;;;;;;;8.58;100.00;100266.22;10215564;29;20467;-68
2024/02/12 10:12:12;;;;;;;1999.90;999.90;;;;;;;8.64;100.00;100266.72;10214875;29;20440;-68
2024/02/12 10:17:15;;;;;;;1999.90;999.90;;;;;;;8.54;100.00;100266.41;10214268;29;20058;-68
2024/02/12 10:22:20;;;;;;;1999.90;999.90;;;;;;;9.07;100.00;100273.78;10214966;29;20051;-68
2024/02/12 10:27:22;;;;;;;1999.90;999.90;;;;;;;9.21;100.00;100271.22;10216090;29;20106;-68
2024/02/12 10:32:26;;;;;;;1999.90;999.90;;;;;;;9.32;100.00;100280.16;10214314;29;20478;-68
2024/02/12 10:37:28;;;;;;;1999.90;999.90;;;;;;;9.83;100.00;100283.97;10213078;29;20059;-68
2024/02/12 10:42:38;;;;;;;1999.90;999.90;;;;;;;10.30;100.00;100288.88;10212885;29;20052;-69
2024/02/12 10:47:41;;;;;;;1999.90;999.90;;;;;;;9.71;100.00;100295.16;10214265;29;20135;-68
2024/02/12 10:52:44;;;;;;;1999.90;999.90;;;;;;;9.38;100.00;100305.91;10214579;29;20044;-68
2024/02/12 10:57:46;;;;;;;1999.90;999.90;;;;;;;9.23;100.00;100315.50;10214473;29;20114;-68
2024/02/12 11:02:50;;;;;;;1999.90;999.90;;;;;;;9.09;100.00;100318.94;10213695;29;20479;-69
2024/02/12 11:08:10;;;;;;;1999.90;999.90;;;;;;;8.86;100.00;100322.88;10214318;29;20056;-68
2024/02/12 11:13:17;;;;;;;1999.90;999.90;;;;;;;8.86;100.00;100323.75;10214214;29;20061;-68
2024/02/12 11:18:25;;;;;;;1999.90;999.90;;;;;;;9.09;100.00;100327.63;10214126;29;20047;-68
2024/02/12 11:23:30;;;;;;;1999.90;999.90;;;;;;;10.15;100.00;100327.34;10213670;29;20052;-68
2024/02/12 11:28:33;;;;;;;1999.90;999.90;;;;;;;11.07;96.80;100325.78;10213956;29;20079;-68
2024/02/12 11:33:35;;;;;;;1999.90;999.90;;;;;;;10.64;95.07;100326.84;10213875;29;20052;-68
2024/02/12 11:38:48;;;;;;;1999.90;999.90;;;;;;;12.35;99.77;100323.03;10213112;29;20055;-69
2024/02/12 11:43:52;;;;;;;1999.90;999.90;;;;;;;11.95;96.27;100336.38;10212588;29;20058;-68
2024/02/12 11:49:07;;;;;;;1999.90;999.90;;;;;;;11.44;93.14;100334.59;10213723;29;20052;-69
2024/02/12 11:54:13;;;;;;;1999.90;999.90;;;;;;;10.47;94.16;100338.38;10214629;29;20415;-68
2024/02/12 11:59:21;;;;;;;1999.90;999.90;;;;;;;9.74;95.22;100346.44;10220353;29;20051;-68
2024/02/12 12:04:24;;;;;;;1999.90;999.90;;;;;;;11.32;91.60;100344.16;10219121;29;20135;-68
2024/02/12 12:09:28;;;;;;;1999.90;999.90;;;;;;;12.36;81.64;100340.47;10220009;29;20111;-69
2024/02/12 12:14:38;;;;;;;1999.90;999.90;;;;;;;11.66;82.89;100356.75;10219241;29;20056;-68
2024/02/12 12:19:41;;;;;;;1999.90;999.90;;;;;;;13.70;76.16;100341.00;10219930;29;20079;-69
2024/02/12 12:24:43;;;;;;;1999.90;999.90;;;;;;;13.13;73.94;100341.84;10217332;29;20159;-68
2024/02/12 12:29:47;;;;;;;1999.90;999.90;;;;;;;11.77;74.80;100354.22;10217497;29;20048;-68
2024/02/12 12:34:51;;;;;;;1999.90;999.90;;;;;;;13.83;71.11;100351.41;10218512;29;20054;-68
2024/02/12 12:39:54;;;;;;;1999.90;999.90;;;;;;;15.51;63.57;100345.66;10218811;29;20044;-69
2024/02/12 12:44:57;;;;;;;1999.90;999.90;;;;;;;14.60;68.05;100355.03;10218772;29;20134;-69
2024/02/12 12:50:00;;;;;;;1999.90;999.90;;;;;;;17.76;62.47;100353.81;10218520;29;20111;-69
2024/02/12 12:55:07;;;;;;;1999.90;999.90;;;;;;;17.70;54.05;100349.94;10217694;29;20389;-69
2024/02/12 13:00:26;;;;;;;1999.90;999.90;;;;;;;13.22;69.65;100362.19;10218087;29;20055;-69
2024/02/12 13:05:29;;;;;;;1999.90;999.90;;;;;;;12.76;75.21;100373.47;10215759;29;20060;-69
2024/02/12 13:10:37;;;;;;;1999.90;999.90;;;;;;;11.66;78.77;100382.97;10217161;29;20114;-69
2024/02/12 13:15:46;;;;;;;1999.90;999.90;;;;;;;11.41;78.45;100381.16;10217604;29;20051;-69
2024/02/12 13:20:50;;;;;;;1999.90;999.90;;;;;;;11.76;76.81;100394.50;10216771;29;20052;-69
2024/02/12 13:25:53;;;;;;;1999.90;999.90;;;;;;;11.25;78.07;100391.84;10199907;29;20064;-69
2024/02/12 13:30:57;;;;;;;1999.90;999.90;;;;;;;13.28;75.30;100388.03;10217006;29;20060;-69
2024/02/12 13:36:01;;;;;;;1999.90;999.90;;;;;;;13.73;72.72;100388.13;10216297;29;20543;-69
2024/02/12 13:41:05;;;;;;;1999.90;999.90;;;;;;;12.62;73.23;100395.50;10229702;23;20570;-66
2024/02/12 13:46:07;;;;;;;1999.90;999.90;;;;;;;13.83;69.42;100390.88;10215300;29;20091;-65
2024/02/12 13:51:10;;;;;;;1999.90;999.90;;;;;;;15.49;65.80;100396.91;10215700;29;20075;-66
2024/02/12 13:56:12;;;;;;;1999.90;999.90;;;;;;;12.45;69.79;100407.22;10215500;29;20495;-65
2024/02/12 14:01:15;;;;;;;1999.90;999.90;;;;;;;10.90;75.38;100411.56;10214703;29;20062;-65
2024/02/12 14:06:37;;;;;;;1999.90;999.90;;;;;;;11.13;79.77;100404.00;10214761;29;20051;-65
2024/02/12 14:11:40;;;;;;;1999.90;999.90;;;;;;;11.03;78.86;100418.59;10214468;29;20052;-65
2024/02/12 14:16:43;;;;;;;1999.90;999.90;;;;;;;10.16;78.96;100424.03;10214010;29;20066;-67
2024/02/12 14:21:46;;;;;;;1999.90;999.90;;;;;;;9.80;81.16;100435.81;10215237;29;20048;-67
2024/02/12 14:26:49;;;;;;;1999.90;999.90;;;;;;;10.36;79.98;100443.75;10213997;29;20062;-67
2024/02/12 14:32:02;;;;;;;1999.90;999.90;;;;;;;10.23;78.51;100455.88;10215082;29;20095;-67
2024/02/12 14:37:24;;;;;;;1999.90;999.90;;;;;;;11.04;80.93;100462.22;10214761;29;20126;-65
2024/02/12 14:42:27;;;;;;;1999.90;999.90;;;;;;;10.70;77.84;100464.38;10214726;29;20052;-65
2024/02/12 14:47:41;;;;;;;1999.90;999.90;;;;;;;10.66;78.23;100474.19;10213610;29;20052;-65
2024/02/12 14:52:44;;;;;;;1999.90;999.90;;;;;;;10.46;78.34;100482.47;10214582;29;20075;-65
2024/02/12 14:57:49;;;;;;;1999.90;999.90;;;;;;;10.36;78.22;100503.13;10214539;29;20052;-65
2024/02/12 15:02:53;;;;;;;1999.90;999.90;;;;;;;10.40;78.52;100499.38;10214332;29;20089;-65
2024/02/12 15:07:59;;;;;;;1999.90;999.90;;;;;;;11.13;76.21;100514.88;10213762;29;20495;-66
2024/02/12 15:13:06;;;;;;;1999.90;999.90;;;;;;;10.17;76.37;100519.91;10212541;29;20559;-65
2024/02/12 15:18:12;;;;;;;1999.90;999.90;;;;;;;10.17;75.88;100522.53;10212597;29;20059;-65
2024/02/12 15:23:14;;;;;;;1999.90;999.90;;;;;;;9.97;75.53;100528.94;10212283;29;20487;-65
2024/02/12 15:28:17;;;;;;;1999.90;999.90;;;;;;;9.96;76.27;100534.25;10213997;29;20384;-65
2024/02/12 15:33:20;;;;;;;1999.90;999.90;;;;;;;10.34;78.26;100552.94;10221541;29;20143;-65
2024/02/12 15:38:25;;;;;;;1999.90;999.90;;;;;;;9.91;78.59;100571.13;10220570;29;20503;-65
2024/02/12 15:43:29;;;;;;;1999.90;999.90;;;;;;;8.54;84.38;100573.47;10219906;29;20051;-65
2024/02/12 15:48:33;;;;;;;1999.90;999.90;;;;;;;7.77;92.24;100600.78;10220948;29;20051;-65
2024/02/12 15:53:35;;;;;;;1999.90;999.90;;;;;;;7.73;97.07;100607.91;10220140;29;20048;-64
2024/02/12 15:58:38;;;;;;;1999.90;999.90;;;;;;;7.90;98.80;100611.44;10219934;29;20487;-65
2024/02/12 16:03:40;;;;;;;1999.90;999.90;;;;;;;8.12;96.70;100606.84;10219129;29;20083;-66
2024/02/12 16:08:44;;;;;;;1999.90;999.90;;;;;;;8.43;94.05;100602.72;10220201;29;20056;-67
2024/02/12 16:13:49;;;;;;;1999.90;999.90;;;;;;;8.22;92.03;100624.63;10218832;29;20090;-67
2024/02/12 16:18:54;;;;;;;1999.90;999.90;;;;;;;7.86;92.18;100628.16;10218037;29;20119;-65
2024/02/12 16:23:56;;;;;;;1999.90;999.90;;;;;;;7.46;91.92;100637.88;10218869;29;20485;-65
2024/02/12 16:29:00;;;;;;;1999.90;999.90;;;;;;;7.37;90.42;100650.41;10219316;29;20098;-64
2024/02/12 16:34:03;;;;;;;1999.90;999.90;;;;;;;7.22;90.41;100661.53;10218708;29;20083;-64
2024/02/12 16:39:06;;;;;;;1999.90;999.90;;;;;;;7.10;91.24;100655.13;10217178;29;20120;-64
2024/02/12 16:44:08;;;;;;;1999.90;999.90;;;;;;;6.94;93.31;100677.53;10217602;29;20126;-66
2024/02/12 16:49:11;;;;;;;1999.90;999.90;;;;;;;6.97;91.89;100680.00;10217546;29;20063;-66
2024/02/12 16:54:14;;;;;;;1999.90;999.90;;;;;;;6.70;91.97;100694.16;10218494;29;20048;-66
2024/02/12 16:59:19;;;;;;;1999.90;999.90;;;;;;;6.59;95.62;100700.72;10202499;29;20051;-67
2024/02/12 17:04:21;;;;;;;1999.90;999.90;;;;;;;6.11;98.10;100719.13;10217337;29;20595;-66
2024/02/12 17:09:24;;;;;;;1999.90;999.90;;;;;;;5.98;100.00;100730.06;10216617;29;20175;-67
2024/02/12 17:14:29;;;;;;;1999.90;999.90;;;;;;;5.87;100.00;100733.06;10215951;29;20510;-66
2024/02/12 17:19:31;;;;;;;1999.90;999.90;;;;;;;5.85;100.00;100748.72;10217504;29;20055;-65
2024/02/12 17:24:34;;;;;;;1999.90;999.90;;;;;;;6.22;100.00;100764.63;10217262;29;20056;-64
2024/02/12 17:29:37;;;;;;;1999.90;999.90;;;;;;;6.27;100.00;100780.91;10217141;29;20051;-66
2024/02/12 17:34:39;;;;;;;1999.90;999.90;;;;;;;6.26;100.00;100787.03;10216986;29;20051;-67
2024/02/12 17:39:44;;;;;;;1999.90;999.90;;;;;;;6.47;100.00;100800.91;10216238;29;20090;-66
2024/02/12 17:44:47;;;;;;;1999.90;999.90;;;;;;;6.33;100.00;100807.50;10216405;29;20058;-66
2024/02/12 17:49:50;;;;;;;1999.90;999.90;;;;;;;6.21;100.00;100814.97;10215718;29;20082;-66
2024/02/12 17:54:52;;;;;;;1999.90;999.90;;;;;;;5.98;100.00;100818.44;10216109;29;20047;-66
2024/02/12 17:59:55;;;;;;;1999.90;999.90;;;;;;;5.91;100.00;100828.19;10215947;29;20047;-67
2024/02/12 18:04:57;;;;;;;1999.90;999.90;;;;;;;5.78;100.00;100838.16;10215849;29;20059;-67
2024/02/12 18:10:00;;;;;;;1999.90;999.90;;;;;;;5.87;100.00;100843.03;10215711;29;20073;-67
2024/02/12 18:15:03;;;;;;;1999.90;999.90;;;;;;;6.07;100.00;100857.94;10215540;29;20075;-66
2024/02/12 18:20:06;;;;;;;1999.90;999.90;;;;;;;5.99;100.00;100866.94;10214692;29;20422;-66
2024/02/12 18:25:11;;;;;;;1999.90;999.90;;;;;;;6.15;100.00;100881.03;10214636;29;20423;-66
2024/02/12 18:30:14;;;;;;;1999.90;999.90;;;;;;;6.05;100.00;100883.16;10213965;29;20110;-66
2024/02/12 18:35:17;;;;;;;1999.90;999.90;;;;;;;6.04;100.00;100893.59;10214288;29;20051;-67
2024/02/12 18:40:21;;;;;;;1999.90;999.90;;;;;;;5.85;100.00;100909.81;10214261;29;20059;-66
2024/02/12 18:45:24;;;;;;;1999.90;999.90;;;;;;;5.78;100.00;100910.91;10214164;29;20416;-67
2024/02/12 18:50:28;;;;;;;1999.90;999.90;;;;;;;5.86;100.00;100914.09;10214685;29;20102;-66
2024/02/12 18:55:31;;;;;;;1999.90;999.90;;;;;;;5.72;100.00;100932.78;10213980;29;20415;-66
2024/02/12 19:00:35;;;;;;;1999.90;999.90;;;;;;;5.88;100.00;100935.69;10214479;29;20061;-66
2024/02/12 19:05:37;;;;;;;1999.90;999.90;;;;;;;5.70;100.00;100947.59;10220103;29;20131;-66
2024/02/12 19:10:40;;;;;;;1999.90;999.90;;;;;;;5.62;100.00;100951.34;10204878;29;20486;-66
2024/02/12 19:15:43;;;;;;;1999.90;999.90;;;;;;;5.59;100.00;100955.72;10221082;29;20130;-66
2024/02/12 19:20:45;;;;;;;1999.90;999.90;;;;;;;5.49;100.00;100969.94;10220808;29;20051;-66
2024/02/12 19:25:48;;;;;;;1999.90;999.90;;;;;;;5.59;100.00;100970.47;10221873;29;20056;-66
2024/02/12 19:30:50;;;;;;;1999.90;999.90;;;;;;;5.68;100.00;100987.50;10221635;29;20047;-67
2024/02/12 19:35:53;;;;;;;1999.90;999.90;;;;;;;5.47;100.00;100992.50;10221037;29;20385;-66
2024/02/12 19:40:55;;;;;;;1999.90;999.90;;;;;;;5.54;100.00;100996.59;10203737;29;20048;-66
2024/02/12 19:45:58;;;;;;;1999.90;999.90;;;;;;;5.40;100.00;101001.41;10219888;29;20052;-66
2024/02/12 19:51:02;;;;;;;1999.90;999.90;;;;;;;5.44;100.00;101010.78;10220252;29;20487;-66
2024/02/12 19:56:06;;;;;;;1999.90;999.90;;;;;;;5.30;100.00;101008.63;10218944;29;20530;-66
2024/02/12 20:01:09;;;;;;;1999.90;999.90;;;;;;;5.32;100.00;101027.59;10220384;29;20075;-66
2024/02/12 20:06:11;;;;;;;1999.90;999.90;;;;;;;5.21;100.00;101027.97;10218520;29;20415;-66
2024/02/12 20:11:18;;;;;;;1999.90;999.90;;;;;;;5.24;100.00;101041.72;10220088;29;20055;-66
2024/02/12 20:16:21;;;;;;;1999.90;999.90;;;;;;;5.44;100.00;101059.28;10219966;29;20056;-66
2024/02/12 20:21:24;;;;;;;1999.90;999.90;;;;;;;5.29;100.00;101073.59;10219706;29;20063;-66
2024/02/12 20:26:26;;;;;;;1999.90;999.90;;;;;;;5.33;100.00;101078.66;10219591;29;20051;-66
2024/02/12 20:31:29;;;;;;;1999.90;999.90;;;;;;;5.19;100.00;101079.09;10219387;29;20082;-66
2024/02/12 20:36:34;;;;;;;1999.90;999.90;;;;;;;5.10;100.00;101088.88;10218091;29;20134;-67
2024/02/12 20:41:37;;;;;;;1999.90;999.90;;;;;;;5.36;100.00;101082.88;10218360;29;20075;-67
2024/02/12 20:46:40;;;;;;;1999.90;999.90;;;;;;;5.21;100.00;101100.66;10218276;29;20492;-67
2024/02/12 20:51:43;;;;;;;1999.90;999.90;;;;;;;4.93;100.00;101110.16;10218014;29;20399;-67
2024/02/12 20:56:45;;;;;;;1999.90;999.90;;;;;;;4.72;100.00;101116.78;10201741;29;20062;-66
2024/02/12 21:01:49;;;;;;;1999.90;999.90;;;;;;;4.87;100.00;101129.31;10218199;29;20054;-66
2024/02/12 21:06:51;;;;;;;1999.90;999.90;;;;;;;4.78;100.00;101124.41;10217150;29;20110;-66
2024/02/12 21:11:54;;;;;;;1999.90;999.90;;;;;;;4.77;100.00;101120.09;10217326;29;20467;-67
2024/02/12 21:16:57;;;;;;;1999.90;999.90;;;;;;;4.58;100.00;101136.16;10217852;29;20058;-67
2024/02/12 21:22:00;;;;;;;1999.90;999.90;;;;;;;4.73;100.00;101141.84;10217428;29;20051;-66
2024/02/12 21:27:03;;;;;;;1999.90;999.90;;;;;;;4.64;100.00;101151.56;10216854;29;20061;-66
2024/02/12 21:32:06;;;;;;;1999.90;999.90;;;;;;;4.64;100.00;101156.75;10215320;29;20403;-66
2024/02/12 21:37:12;;;;;;;1999.90;999.90;;;;;;;4.71;100.00;101157.44;10215157;29;20056;-66
2024/02/12 21:42:25;;;;;;;1999.90;999.90;;;;;;;4.57;100.00;101167.31;10215547;29;20126;-66
2024/02/12 21:47:27;;;;;;;1999.90;999.90;;;;;;;4.59;100.00;101168.13;10216463;29;20114;-66
2024/02/12 21:52:30;;;;;;;1999.90;999.90;;;;;;;4.61;100.00;101168.97;10214607;29;20477;-66
2024/02/12 21:57:33;;;;;;;1999.90;999.90;;;;;;;4.89;100.00;101169.03;10215742;29;20479;-66
2024/02/12 22:02:37;;;;;;;1999.90;999.90;;;;;;;4.75;100.00;101182.38;10215926;29;20130;-66
2024/02/12 22:07:40;;;;;;;1999.90;999.90;;;;;;;4.67;100.00;101175.72;10215222;29;20397;-66
2024/02/12 22:12:43;;;;;;;1999.90;999.90;;;;;;;4.67;100.00;101181.75;10215690;29;20075;-66
2024/02/12 22:17:45;;;;;;;1999.90;999.90;;;;;;;4.62;100.00;101184.47;10214886;29;20094;-66
2024/02/12 22:22:48;;;;;;;1999.90;999.90;;;;;;;4.36;100.00;101197.25;10214669;29;20447;-66